Time;durP1;ratioP1;P1;durP2;ratioP2;P2;SDS_P1;SDS_P2;PMS_P1;PMS_P2;Temp;Humidity;BMP_temperature;BMP_pressure;BME280_temperature;BME280_humidity;BME280_pressure;Samples;Min_cycle;Max_cycle;Signal;HPM_P1;HPM_P2
2022/11/12 00:00:58;;;;;;;18.15;7.28;;;12.60;99.90;;;11.41;91.66;102623.69;4958095;28;20038;-79
2022/11/12 00:03:24;;;;;;;12.23;6.40;;;12.50;99.90;;;11.43;92.08;102635.09;4966272;28;20031;-77
2022/11/12 00:05:52;;;;;;;13.98;6.32;;;12.60;99.90;;;11.41;91.23;102632.47;4970942;28;20057;-76
2022/11/12 00:08:18;;;;;;;15.95;6.60;;;12.60;99.90;;;11.40;92.18;102640.41;4973658;28;20034;-76
2022/11/12 00:10:47;;;;;;;16.60;7.43;;;12.60;99.90;;;11.42;91.92;102638.59;4965807;28;20109;-78
2022/11/12 00:13:13;;;;;;;20.67;8.25;;;12.60;99.90;;;11.41;92.27;102640.38;4969921;28;20030;-78
2022/11/12 00:15:40;;;;;;;19.35;7.10;;;12.50;99.90;;;11.40;92.12;102630.75;4972702;28;20459;-77
2022/11/12 00:18:06;;;;;;;12.57;7.18;;;12.50;99.90;;;11.39;92.20;102626.34;4965512;28;20030;-78
2022/11/12 00:20:32;;;;;;;21.67;7.50;;;12.50;99.90;;;11.37;92.53;102635.19;4960302;28;20506;-78
2022/11/12 00:22:58;;;;;;;15.80;6.88;;;12.50;99.90;;;11.33;92.32;102625.59;4970662;28;20376;-78
2022/11/12 00:25:31;;;;;;;16.27;7.20;;;12.50;99.90;;;11.34;92.13;102640.50;4968448;28;20065;-77
2022/11/12 00:28:06;;;;;;;21.05;7.68;;;12.50;99.90;;;11.32;92.77;102642.31;4965953;28;20034;-78
2022/11/12 00:30:32;;;;;;;19.75;7.28;;;12.50;99.90;;;11.29;92.66;102649.41;4953226;28;20757;-77
2022/11/12 00:33:04;;;;;;;15.70;7.35;;;12.50;99.90;;;11.28;92.42;102639.75;4974982;28;20144;-76
2022/11/12 00:35:33;;;;;;;20.10;7.03;;;12.50;99.90;;;11.25;92.51;102645.09;4974297;28;20039;-78
2022/11/12 00:37:59;;;;;;;17.98;7.15;;;12.50;99.90;;;11.28;92.60;102636.25;4958301;28;20515;-77
2022/11/12 00:40:26;;;;;;;22.40;7.20;;;12.50;99.90;;;11.28;92.49;102642.38;4968568;28;20308;-77
2022/11/12 00:42:52;;;;;;;17.05;6.93;;;12.40;99.90;;;11.28;92.25;102630.97;4974710;28;20030;-77
2022/11/12 00:45:19;;;;;;;19.20;7.30;;;12.50;99.90;;;11.26;92.69;102628.34;4976946;28;20026;-77
2022/11/12 00:47:45;;;;;;;16.65;6.38;;;12.40;99.90;;;11.25;92.37;102637.19;4978404;28;20088;-78
2022/11/12 00:50:11;;;;;;;19.92;6.85;;;12.50;99.90;;;11.24;92.55;102638.06;4968450;28;20038;-78
2022/11/12 00:52:37;;;;;;;15.75;6.05;;;12.40;99.90;;;11.25;92.46;102631.91;4976556;28;20050;-77
2022/11/12 00:55:03;;;;;;;20.98;6.95;;;12.40;99.90;;;11.25;92.73;102631.00;4967193;28;20031;-78
2022/11/12 00:57:29;;;;;;;14.13;6.10;;;12.40;99.90;;;11.26;92.81;102627.50;4975419;28;20407;-77
2022/11/12 00:59:55;;;;;;;13.35;5.65;;;12.40;99.90;;;11.24;92.55;102622.25;4966189;28;20089;-78
2022/11/12 01:02:21;;;;;;;14.98;6.28;;;12.40;99.90;;;11.25;92.79;102620.47;4975692;28;20105;-77
2022/11/12 01:04:47;;;;;;;12.00;5.82;;;12.40;99.90;;;11.28;92.23;102626.56;4975283;28;20031;-78
2022/11/12 01:07:18;;;;;;;17.30;5.75;;;12.40;99.90;;;11.26;92.32;102628.34;4968609;28;20034;-77
2022/11/12 01:09:47;;;;;;;8.75;3.65;;;12.40;99.90;;;11.27;92.31;102626.59;4991498;28;20026;-77
2022/11/12 01:12:12;;;;;;;7.78;3.83;;;12.40;99.90;;;11.26;92.02;102636.25;4967884;28;20027;-77
2022/11/12 01:14:38;;;;;;;20.60;5.65;;;12.40;99.90;;;11.26;92.54;102616.94;4979298;28;20656;-77
2022/11/12 01:17:04;;;;;;;28.30;5.45;;;12.40;99.90;;;11.25;92.07;102621.34;4975259;28;20034;-78
2022/11/12 01:19:30;;;;;;;11.70;4.97;;;12.40;99.90;;;11.25;91.98;102628.38;4974965;28;20113;-77
2022/11/12 01:21:56;;;;;;;13.25;5.20;;;12.40;99.90;;;11.25;92.15;102626.63;4968133;28;20491;-78
2022/11/12 01:24:24;;;;;;;21.08;5.50;;;12.40;99.90;;;11.25;92.31;102621.34;4975633;28;20098;-77
2022/11/12 01:26:50;;;;;;;15.43;5.40;;;12.40;99.90;;;11.24;92.12;102624.88;4978133;28;20038;-78
2022/11/12 01:29:16;;;;;;;19.45;5.90;;;12.40;99.90;;;11.23;91.72;102627.53;4970529;28;20053;-78
2022/11/12 01:31:42;;;;;;;21.98;6.18;;;12.50;99.90;;;11.24;91.84;102618.75;4991617;28;20117;-78
2022/11/12 01:34:08;;;;;;;24.73;5.97;;;12.40;99.90;;;11.25;91.72;102621.34;4975789;28;20554;-77
2022/11/12 01:36:42;;;;;;;15.82;5.70;;;12.50;99.90;;;11.26;91.77;102627.50;4974311;28;20109;-78
2022/11/12 01:39:08;;;;;;;14.43;4.97;;;12.40;99.90;;;11.25;92.37;102620.47;4975718;28;20023;-78
2022/11/12 01:41:38;;;;;;;15.63;5.30;;;12.40;99.90;;;11.27;92.00;102613.41;4975654;28;20026;-77
2022/11/12 01:44:19;;;;;;;16.45;5.90;;;12.40;99.90;;;11.28;91.73;102610.75;4972848;28;20027;-78
2022/11/12 01:47:15;;;;;;;24.85;5.95;;;12.50;99.90;;;11.24;92.29;102614.31;4983862;28;20045;-78
2022/11/12 01:49:55;;;;;;;20.63;6.20;;;12.40;99.90;;;11.22;92.40;102610.00;4992261;28;20030;-78
2022/11/12 01:52:38;;;;;;;17.23;5.10;;;12.50;99.90;;;11.22;92.11;102610.00;4969009;28;20085;-78
2022/11/12 01:55:14;;;;;;;18.73;4.90;;;12.40;99.90;;;11.20;92.22;102610.00;4969914;28;20030;-78
2022/11/12 01:57:59;;;;;;;16.80;5.65;;;12.40;99.90;;;11.17;92.65;102602.16;4968901;28;20045;-77
2022/11/12 02:00:25;;;;;;;12.90;5.47;;;12.40;99.90;;;11.14;92.89;102612.75;4957199;28;20023;-78
2022/11/12 02:02:57;;;;;;;14.32;5.80;;;12.40;99.90;;;11.18;92.30;102609.16;4992077;28;20105;-78
2022/11/12 02:05:28;;;;;;;11.77;5.07;;;12.40;99.90;;;11.16;92.31;102607.47;4974694;28;20042;-78
2022/11/12 02:07:56;;;;;;;29.67;6.32;;;12.40;99.90;;;11.13;92.69;102605.75;4975337;28;20042;-78
2022/11/12 02:10:22;;;;;;;16.40;5.80;;;12.30;99.90;;;11.15;92.83;102603.97;4975785;28;20038;-78
2022/11/12 02:15:36;;;;;;;20.52;6.03;;;12.30;99.90;;;11.15;93.17;102605.75;4975434;28;20041;-78
2022/11/12 02:18:03;;;;;;;18.30;6.55;;;12.30;99.90;;;11.14;92.63;102612.75;4986184;28;20030;-78
2022/11/12 02:20:34;;;;;;;11.07;5.50;;;12.40;99.90;;;11.16;92.44;102616.25;4961327;28;20081;-78
2022/11/12 02:23:02;;;;;;;19.52;6.20;;;12.30;99.90;;;11.17;93.20;102622.41;4972675;28;20483;-78
2022/11/12 02:25:28;;;;;;;18.55;6.15;;;12.30;99.90;;;11.14;93.06;102612.75;4959094;28;20026;-78
2022/11/12 02:27:57;;;;;;;19.75;6.90;;;12.30;99.90;;;11.14;92.69;102618.03;4966554;28;20057;-78
2022/11/12 02:30:47;;;;;;;20.65;6.57;;;12.30;99.90;;;11.13;92.95;102613.66;4979091;28;20042;-78
2022/11/12 02:33:13;;;;;;;15.48;6.60;;;12.30;99.90;;;11.10;93.20;102605.84;4978188;28;20414;-78
2022/11/12 02:35:40;;;;;;;17.02;7.28;;;12.30;99.90;;;11.10;93.32;102605.84;4970248;28;20041;-78
2022/11/12 02:38:07;;;;;;;16.20;6.95;;;12.30;99.90;;;11.11;93.29;102614.59;4973405;28;20027;-78
2022/11/12 02:40:34;;;;;;;17.88;7.18;;;12.30;99.90;;;11.09;93.37;102614.63;4959215;28;20023;-78
2022/11/12 02:43:00;;;;;;;14.98;6.75;;;12.30;99.90;;;11.09;93.60;102615.47;4968814;28;20049;-78
2022/11/12 02:45:26;;;;;;;16.95;7.30;;;12.30;99.90;;;11.07;93.49;102617.28;4965946;28;20588;-78
2022/11/12 02:47:52;;;;;;;18.90;7.93;;;12.30;99.90;;;11.05;93.76;102619.06;4979995;28;20036;-78
2022/11/12 02:50:19;;;;;;;20.83;8.30;;;12.30;99.90;;;11.05;93.37;102613.81;4959612;28;20434;-78
2022/11/12 02:52:45;;;;;;;15.13;7.50;;;12.20;99.90;;;11.06;93.39;102625.25;4977299;28;20038;-78
2022/11/12 02:55:12;;;;;;;22.20;8.35;;;12.20;99.90;;;11.08;94.21;102623.44;4969111;28;20517;-77
2022/11/12 02:57:39;;;;;;;19.58;8.32;;;12.20;99.90;;;11.08;93.76;102626.09;4975921;28;20034;-78
2022/11/12 03:00:10;;;;;;;16.95;8.05;;;12.20;99.90;;;11.08;93.47;102631.34;4971293;28;20037;-78
2022/11/12 03:02:41;;;;;;;18.85;8.77;;;12.20;99.90;;;11.07;93.70;102619.91;4971306;28;20398;-78
2022/11/12 03:05:11;;;;;;;22.25;8.50;;;12.20;99.90;;;11.07;93.28;102624.31;4976804;28;20030;-78
2022/11/12 03:07:37;;;;;;;21.42;9.55;;;12.20;99.90;;;11.03;93.88;102620.00;4971781;28;20057;-78
2022/11/12 03:10:05;;;;;;;20.40;9.02;;;12.20;99.90;;;11.02;93.88;102623.56;4969924;28;20031;-78
2022/11/12 03:12:31;;;;;;;24.65;8.57;;;12.20;99.90;;;10.99;94.60;102621.84;4969047;28;21297;-77
2022/11/12 03:14:57;;;;;;;18.45;8.27;;;12.20;99.90;;;10.98;94.64;102621.88;4970820;28;20034;-78
2022/11/12 03:17:23;;;;;;;22.42;9.07;;;12.20;99.90;;;10.99;94.95;102634.13;4957726;28;20033;-78
2022/11/12 03:19:48;;;;;;;19.35;8.63;;;12.20;99.90;;;10.97;94.65;102626.28;4975614;28;20146;-78
2022/11/12 03:22:15;;;;;;;19.05;9.05;;;12.10;99.90;;;10.93;94.90;102629.84;4972312;28;20566;-79
2022/11/12 03:24:40;;;;;;;22.08;9.98;;;12.10;99.90;;;10.91;94.89;102625.47;4968994;28;20043;-78
2022/11/12 03:27:06;;;;;;;27.92;9.88;;;12.10;99.90;;;10.93;95.09;102628.97;4969553;28;20027;-78
2022/11/12 03:29:32;;;;;;;24.17;9.10;;;12.10;99.90;;;10.91;95.42;102622.84;4975535;28;20105;-78
2022/11/12 03:31:58;;;;;;;22.92;9.68;;;12.10;99.90;;;10.87;95.75;102636.09;4968666;28;20492;-78
2022/11/12 03:34:23;;;;;;;17.25;9.55;;;12.10;99.90;;;10.88;95.58;102637.84;4965899;28;20106;-78
2022/11/12 03:36:49;;;;;;;23.63;9.82;;;12.10;99.90;;;10.85;95.59;102631.75;4973499;28;20026;-78
2022/11/12 03:39:15;;;;;;;21.55;9.88;;;12.10;99.90;;;10.87;95.48;102627.31;4968231;28;20049;-78
2022/11/12 03:41:41;;;;;;;19.63;9.30;;;12.10;99.90;;;10.87;95.92;102629.97;4971293;28;20562;-79
2022/11/12 03:44:06;;;;;;;20.02;8.30;;;12.00;99.90;;;10.82;95.86;102624.78;4973344;28;20049;-78
2022/11/12 03:46:35;;;;;;;19.05;9.80;;;12.10;99.90;;;10.82;95.78;102627.41;4974510;28;20109;-78
2022/11/12 03:49:01;;;;;;;24.27;8.77;;;12.00;99.90;;;10.83;96.31;102633.53;4977009;28;20125;-79
2022/11/12 03:51:27;;;;;;;17.85;9.18;;;12.00;99.90;;;10.84;95.64;102632.63;4969997;28;20031;-79
2022/11/12 03:53:53;;;;;;;21.77;9.23;;;12.00;99.90;;;10.82;96.00;102643.22;4972026;28;20039;-78
2022/11/12 03:56:18;;;;;;;21.55;8.80;;;12.00;99.90;;;10.84;95.73;102646.69;4975540;28;20117;-78
2022/11/12 03:58:44;;;;;;;18.33;7.60;;;12.00;99.90;;;10.85;96.07;102637.88;4991969;28;20113;-78
2022/11/12 04:01:13;;;;;;;17.80;8.90;;;12.00;99.90;;;10.85;95.74;102642.28;4972445;28;20550;-78
2022/11/12 04:03:39;;;;;;;20.98;8.55;;;12.00;99.90;;;10.82;96.11;102637.94;4967479;28;20076;-78
2022/11/12 04:08:49;;;;;;;17.65;8.88;;;12.00;99.90;;;10.79;96.20;102635.34;4976359;28;20088;-78
2022/11/12 04:11:16;;;;;;;19.17;8.63;;;12.00;99.90;;;10.78;96.12;102641.53;4973380;28;20031;-78
2022/11/12 04:13:46;;;;;;;18.27;8.73;;;12.00;99.90;;;10.77;96.41;102639.78;4957998;28;20034;-78
2022/11/12 04:21:55;;;;;;;24.48;9.20;;;11.90;99.90;;;10.75;97.01;102646.84;4970628;28;20130;-78
2022/11/12 04:27:19;;;;;;;18.98;9.20;;;11.90;99.90;;;10.74;96.47;102637.22;4991772;28;20124;-78
2022/11/12 04:32:44;;;;;;;25.35;9.63;;;11.90;99.90;;;10.75;96.94;102651.25;4973809;28;20041;-78
2022/11/12 04:35:10;;;;;;;17.42;8.90;;;11.90;99.90;;;10.76;97.00;102658.28;4973793;28;20042;-78
2022/11/12 04:37:46;;;;;;;18.45;9.15;;;11.90;99.90;;;10.75;97.37;102652.09;4966847;28;20031;-78
2022/11/12 04:46:01;;;;;;;25.17;10.48;;;11.90;99.90;;;10.76;97.40;102663.53;4969882;28;20101;-78
2022/11/12 04:48:27;;;;;;;28.23;10.52;;;12.00;99.90;;;10.77;97.29;102671.41;4974204;28;20141;-78
2022/11/12 04:50:58;;;;;;;20.75;9.40;;;12.00;99.90;;;10.78;97.23;102667.88;4967648;28;20121;-77
2022/11/12 04:53:26;;;;;;;26.00;10.38;;;12.00;99.90;;;10.76;97.40;102664.41;4972155;28;20556;-78
2022/11/12 04:55:55;;;;;;;22.90;10.00;;;12.00;99.90;;;10.78;97.33;102673.16;4957497;28;20038;-79
2022/11/12 04:58:22;;;;;;;19.77;9.23;;;11.90;99.90;;;10.79;97.48;102674.00;4972559;28;20042;-77
2022/11/12 05:00:49;;;;;;;28.55;9.13;;;12.00;99.90;;;10.78;97.22;102673.16;4959338;28;20042;-77
2022/11/12 05:03:16;;;;;;;20.17;9.70;;;11.90;99.90;;;10.77;97.37;102666.13;4970196;28;20057;-78
2022/11/12 05:05:42;;;;;;;24.17;10.10;;;12.00;99.90;;;10.78;97.30;102665.25;4957958;28;20030;-78
2022/11/12 05:08:10;;;;;;;21.10;10.05;;;12.00;99.90;;;10.78;97.90;102665.25;4972892;28;20392;-78
2022/11/12 05:10:35;;;;;;;19.05;9.35;;;11.90;99.90;;;10.75;97.98;102667.06;4980787;28;20038;-78
2022/11/12 05:13:01;;;;;;;23.23;9.65;;;12.00;99.90;;;10.75;98.08;102667.91;4972032;28;20034;-79
2022/11/12 05:15:27;;;;;;;18.85;9.10;;;12.00;99.90;;;10.77;97.79;102667.91;4973385;28;20688;-78
2022/11/12 05:17:53;;;;;;;17.83;8.82;;;11.90;99.90;;;10.72;97.96;102678.53;4969825;28;20185;-78
2022/11/12 05:20:19;;;;;;;24.60;9.02;;;11.90;99.90;;;10.73;98.17;102671.47;4976224;28;20031;-78
2022/11/12 05:22:47;;;;;;;25.30;9.57;;;11.90;99.90;;;10.72;98.13;102678.53;4967002;28;20033;-79
2022/11/12 05:25:13;;;;;;;14.98;8.18;;;11.90;99.90;;;10.72;97.52;102678.53;4979215;28;20034;-78
2022/11/12 05:27:38;;;;;;;17.30;8.40;;;11.90;99.90;;;10.72;97.97;102681.16;5016190;22;20552;-83
2022/11/12 05:30:05;;;;;;;22.02;9.32;;;11.90;99.90;;;10.73;97.55;102674.13;4992143;28;20402;-85
2022/11/12 05:32:31;;;;;;;20.73;9.13;;;11.90;99.90;;;10.68;97.99;102680.31;4991783;28;20026;-82
2022/11/12 05:34:56;;;;;;;20.25;9.27;;;11.90;99.90;;;10.68;98.42;102684.72;4996031;28;20033;-84
2022/11/12 05:37:22;;;;;;;24.70;8.60;;;11.90;99.90;;;10.69;98.64;102689.13;4998476;28;20164;-85
2022/11/12 05:39:54;;;;;;;16.85;8.68;;;11.90;99.90;;;10.70;98.33;102696.13;4990442;28;20108;-82
2022/11/12 05:42:19;;;;;;;21.92;7.43;;;11.90;99.90;;;10.68;97.86;102690.00;4983721;28;20022;-82
2022/11/12 05:44:45;;;;;;;24.05;8.88;;;11.80;99.90;;;10.68;98.58;102687.38;5004618;28;20038;-84
2022/11/12 05:47:11;;;;;;;19.73;8.43;;;11.90;99.90;;;10.67;98.81;102694.41;4984528;28;20491;-84
2022/11/12 05:49:37;;;;;;;22.13;8.43;;;11.80;99.90;;;10.66;99.13;102689.16;4991110;28;20116;-83
2022/11/12 05:52:03;;;;;;;21.00;8.93;;;11.90;99.90;;;10.68;98.48;102695.25;5007298;28;20034;-84
2022/11/12 05:54:36;;;;;;;15.50;7.63;;;11.80;99.90;;;10.63;99.19;102689.22;5007023;28;20030;-83
2022/11/12 05:57:03;;;;;;;19.48;7.15;;;11.80;99.90;;;10.64;98.86;102704.97;4997264;28;20037;-83
2022/11/12 05:59:28;;;;;;;18.60;8.07;;;11.90;99.90;;;10.64;99.12;102694.44;4996892;28;20034;-81
2022/11/12 06:01:54;;;;;;;15.32;8.00;;;11.80;99.90;;;10.63;99.50;102702.38;4985311;28;20474;-84
2022/11/12 06:04:27;;;;;;;22.20;9.18;;;11.80;99.90;;;10.65;98.95;102714.63;5006986;28;20099;-83
2022/11/12 06:06:53;;;;;;;19.90;9.55;;;11.80;99.90;;;10.65;98.87;102719.03;4973856;28;20034;-84
2022/11/12 06:09:19;;;;;;;23.80;9.35;;;11.80;99.90;;;10.64;99.41;102709.38;4981242;28;20092;-85
2022/11/12 06:11:45;;;;;;;18.75;8.52;;;11.80;99.90;;;10.64;99.51;102701.47;4977030;28;20137;-83
2022/11/12 06:14:11;;;;;;;16.35;7.60;;;11.80;99.90;;;10.60;99.42;102705.91;4998873;28;20036;-82
2022/11/12 06:16:45;;;;;;;17.67;8.55;;;11.80;99.90;;;10.61;99.89;102709.44;4991995;28;20026;-82
2022/11/12 06:19:11;;;;;;;18.88;8.30;;;11.80;99.90;;;10.60;99.90;102700.63;4987022;28;20242;-82
2022/11/12 06:21:46;;;;;;;19.35;8.50;;;11.80;99.90;;;10.63;99.77;102707.66;4985802;28;20109;-84
2022/11/12 06:24:12;;;;;;;23.75;7.85;;;11.80;99.90;;;10.62;99.52;102698.84;4990917;28;20037;-83
2022/11/12 06:26:37;;;;;;;22.75;8.02;;;11.80;99.90;;;10.63;99.91;102699.75;4989322;28;20080;-82
2022/11/12 06:29:03;;;;;;;15.13;7.35;;;11.80;99.90;;;10.64;99.70;102719.91;4997416;28;20125;-82
2022/11/12 06:31:29;;;;;;;18.42;8.10;;;11.80;99.90;;;10.63;99.88;102712.91;4993129;28;21123;-81
2022/11/12 06:33:55;;;;;;;13.35;7.50;;;11.80;99.90;;;10.63;100.00;102715.56;4977164;28;20091;-83
2022/11/12 06:36:28;;;;;;;18.55;8.00;;;11.80;99.90;;;10.65;99.89;102719.03;4975412;28;20601;-82
2022/11/12 06:38:54;;;;;;;20.83;8.38;;;;;;;10.64;99.26;102714.66;5002595;28;20054;-83
2022/11/12 06:41:20;;;;;;;23.58;8.27;;;11.80;99.90;;;10.65;99.92;102729.56;4982308;28;20034;-81
2022/11/12 06:43:46;;;;;;;23.98;8.77;;;11.80;99.90;;;10.66;100.00;102733.94;4971993;28;20041;-82
2022/11/12 06:46:17;;;;;;;16.15;6.80;;;11.80;99.90;;;10.68;99.44;102729.50;4976171;28;20026;-82
2022/11/12 06:48:43;;;;;;;16.40;8.30;;;11.80;99.90;;;10.67;99.63;102730.44;4991746;28;20049;-86
2022/11/12 06:51:38;;;;;;;18.77;8.30;;;11.80;99.90;;;10.71;99.81;102747.91;4992614;28;20663;-84
2022/11/12 06:54:05;;;;;;;25.05;9.07;;;11.80;99.90;;;10.72;99.79;102748.78;5008550;28;20391;-83
2022/11/12 06:56:30;;;;;;;26.02;8.75;;;11.90;99.90;;;10.71;99.91;102726.81;4978535;28;20029;-83
2022/11/12 06:58:56;;;;;;;22.40;7.97;;;11.90;99.90;;;10.72;99.61;102722.44;4978584;28;20018;-84
2022/11/12 07:01:23;;;;;;;19.08;8.55;;;11.90;99.90;;;10.75;99.56;102735.56;4988994;28;20032;-84
2022/11/12 07:03:58;;;;;;;22.23;8.32;;;11.90;99.90;;;10.77;99.78;102750.44;4984302;28;20030;-83
2022/11/12 07:06:24;;;;;;;28.48;9.35;;;11.90;99.90;;;10.77;99.70;102744.31;4973502;28;20024;-83
2022/11/12 07:08:50;;;;;;;16.95;7.43;;;11.90;99.90;;;10.71;99.76;102724.19;4986625;28;20410;-83
2022/11/12 07:11:21;;;;;;;22.95;8.02;;;11.90;99.90;;;10.73;99.29;102738.22;4975551;28;20026;-82
2022/11/12 07:13:47;;;;;;;25.73;7.55;;;11.90;99.90;;;10.77;99.26;102753.09;4972576;28;20026;-82
2022/11/12 07:16:17;;;;;;;24.10;8.25;;;11.90;99.90;;;10.76;99.54;102754.00;4986423;28;20426;-84
2022/11/12 07:18:52;;;;;;;15.50;8.50;;;12.00;99.90;;;10.81;99.71;102757.41;4981793;28;20523;-84
2022/11/12 07:21:19;;;;;;;19.17;7.23;;;12.00;99.90;;;10.85;99.34;102753.84;4989204;28;20039;-82
2022/11/12 07:23:46;;;;;;;17.92;7.90;;;12.00;99.90;;;10.83;99.23;102734.53;4975285;28;20029;-84
2022/11/12 07:26:24;;;;;;;20.10;7.43;;;12.00;99.90;;;10.87;99.26;102746.78;4986101;28;20073;-84
2022/11/12 07:28:59;;;;;;;14.02;7.30;;;12.00;99.90;;;10.88;99.74;102767.00;4989670;28;20033;-82
2022/11/12 07:31:25;;;;;;;19.88;8.88;;;12.00;99.90;;;10.93;99.50;102747.56;4986154;28;20025;-85
2022/11/12 07:33:51;;;;;;;8.57;5.65;;;12.00;99.90;;;10.96;99.22;102744.91;4990939;28;20117;-82
2022/11/12 07:36:28;;;;;;;15.75;6.88;;;12.10;99.90;;;11.03;99.05;102767.63;4972225;28;20470;-82
2022/11/12 07:38:54;;;;;;;24.77;8.07;;;12.10;99.90;;;11.07;99.51;102767.56;4977485;28;20029;-82
2022/11/12 07:41:23;;;;;;;21.50;8.30;;;12.20;99.90;;;11.13;99.17;102753.41;4989143;28;20045;-81
2022/11/12 07:43:57;;;;;;;18.38;7.32;;;12.20;99.90;;;11.17;98.59;102765.66;4985532;28;20026;-82
2022/11/12 07:46:25;;;;;;;20.67;7.95;;;12.20;99.90;;;11.23;98.44;102789.28;4991896;28;20479;-82
2022/11/12 07:48:59;;;;;;;38.78;8.30;;;12.30;99.90;;;11.31;98.09;102777.72;5000954;28;20034;-82
2022/11/12 07:51:28;;;;;;;23.58;7.97;;;12.30;99.90;;;11.36;97.66;102787.31;4977711;28;20036;-83
2022/11/12 07:54:04;;;;;;;19.05;7.20;;;12.40;99.90;;;11.41;97.58;102787.22;4985030;28;20135;-83
2022/11/12 07:56:29;;;;;;;19.48;7.07;;;12.40;99.90;;;11.44;97.12;102790.66;4998309;28;20088;-82
2022/11/12 07:58:55;;;;;;;18.10;6.72;;;12.50;99.90;;;11.50;96.78;102814.31;4998148;28;20440;-82
2022/11/12 08:01:36;;;;;;;21.60;7.05;;;12.60;99.90;;;11.53;96.68;102794.91;4994572;28;20037;-83
2022/11/12 08:04:10;;;;;;;15.25;6.93;;;12.60;99.90;;;11.56;96.52;102794.88;4988417;28;20042;-81
2022/11/12 08:06:37;;;;;;;16.92;6.20;;;12.60;99.90;;;11.61;95.86;102797.44;4970937;28;20074;-80
2022/11/12 08:09:05;;;;;;;12.68;6.45;;;12.70;99.90;;;11.63;95.97;102801.78;4989245;28;20030;-81
2022/11/12 08:11:40;;;;;;;16.15;6.28;;;12.70;99.90;;;11.70;95.00;102818.38;4989569;28;20034;-81
2022/11/12 08:14:06;;;;;;;14.75;6.90;;;12.70;99.90;;;11.75;94.97;102816.53;4988987;28;20079;-82
2022/11/12 08:16:32;;;;;;;17.73;6.53;;;12.80;99.90;;;11.80;95.06;102819.94;4998106;28;20113;-82
2022/11/12 08:18:59;;;;;;;13.88;6.40;;;12.80;99.90;;;11.82;94.88;102817.28;4998136;28;20045;-82
2022/11/12 08:21:36;;;;;;;14.25;6.65;;;13.70;99.90;;;11.87;94.28;102826.84;4996400;28;20736;-83
2022/11/12 08:24:10;;;;;;;20.02;6.68;;;;;;;11.85;94.87;102806.66;4985487;28;20046;-82
2022/11/12 08:26:36;;;;;;;20.67;6.88;;;12.90;99.90;;;11.89;93.99;102825.06;4997162;28;20086;-82
2022/11/12 08:29:03;;;;;;;16.90;6.88;;;12.90;99.90;;;11.95;94.13;102839.09;4995550;28;20066;-82
2022/11/12 08:31:29;;;;;;;16.05;6.93;;;13.00;99.90;;;11.95;93.93;102817.97;4983744;28;20034;-82
2022/11/12 08:33:55;;;;;;;19.60;6.80;;;13.00;99.90;;;11.92;93.24;102818.88;4995834;28;20042;-82
2022/11/12 08:36:30;;;;;;;17.45;6.47;;;13.00;99.90;;;11.94;93.25;102830.25;4994779;28;20625;-82
2022/11/12 08:38:55;;;;;;;14.68;6.95;;;13.00;99.90;;;11.89;93.31;102819.78;5011899;28;20034;-82
2022/11/12 08:41:21;;;;;;;22.95;7.10;;;13.00;99.90;;;11.87;92.99;102832.13;4996037;28;20053;-83
2022/11/12 08:43:47;;;;;;;21.48;7.25;;;12.90;99.90;;;11.84;93.38;102841.88;5013012;28;20034;-82
2022/11/12 08:47:18;;;;;;;;;;;;;;;;;;;;;
2022/11/12 08:50:10;;;;;;;19.83;7.53;;;12.30;99.90;;;11.76;94.14;102831.44;4954669;28;20098;-82
2022/11/12 08:53:06;;;;;;;12.73;6.63;;;12.80;99.90;;;11.77;94.04;102830.56;5009155;28;20034;-82
2022/11/12 08:55:50;;;;;;;;;;;;;;;;;;;;;
2022/11/12 08:58:20;;;;;;;16.23;6.97;;;;;;;11.72;93.92;102834.19;5016827;28;20090;-82
2022/11/12 09:01:22;;;;;;;17.60;7.45;;;;;;;11.77;94.03;102854.31;5019603;28;20025;-83
2022/11/12 09:04:01;;;;;;;15.32;7.13;;;;;;;11.76;94.05;102841.16;5018887;28;20054;-82
2022/11/12 09:06:27;;;;;;;12.18;6.97;;;12.80;99.90;;;11.73;94.28;102854.38;5001628;28;20042;-81
2022/11/12 09:09:17;;;;;;;;;;;;;;;;;;;;;
2022/11/12 09:12:17;;;;;;;15.90;7.50;;;;;;;11.78;93.29;102837.56;4999477;28;20945;-83
2022/11/12 09:14:55;;;;;;;17.20;7.55;;;;;;;11.87;93.76;102847.09;5012704;28;20137;-83
2022/11/12 09:17:39;;;;;;;;;;;;;;;;;;;;;
2022/11/12 09:20:12;;;;;;;22.98;7.60;;;;;;;11.93;93.46;102851.44;5022641;28;20057;-82
2022/11/12 09:26:27;;;;;;;;;;;;;;;;;;;;;
2022/11/12 09:29:16;;;;;;;;;;;;;;;;;;;;;
2022/11/12 09:32:09;;;;;;;14.25;7.28;;;;;;;12.01;93.34;102855.69;4990999;28;20169;-82
2022/11/12 09:34:43;;;;;;;15.48;6.68;;;13.10;99.90;;;12.03;92.76;102861.81;5002699;28;20425;-82
2022/11/12 09:37:24;;;;;;;;;;;;;;;;;;;;;
2022/11/12 09:40:07;;;;;;;;;;;;;;;;;;;;;
2022/11/12 09:43:05;;;;;;;;;;;;;;;;;;;;;
2022/11/12 09:45:47;;;;;;;;;;;;;;;;;;;;;
2022/11/12 09:48:58;;;;;;;;;;;;;;;;;;;;;
2022/11/12 09:51:40;;;;;;;16.23;7.32;;;13.20;99.90;;;12.19;92.30;102877.34;4991962;28;20101;-85
2022/11/12 09:54:41;;;;;;;22.48;6.88;;;;;;;12.26;92.91;102887.75;4993810;28;20042;-83
2022/11/12 09:57:17;;;;;;;23.33;7.53;;;;;;;12.30;92.51;102883.28;4993693;28;20089;-83
2022/11/12 09:59:46;;;;;;;17.70;7.82;;;;;;;12.37;92.11;102891.97;5007312;28;20120;-83
2022/11/12 10:03:08;;;;;;;14.93;7.32;;;13.40;99.90;;;12.36;92.23;102879.66;5008075;28;20149;-83
2022/11/12 10:06:09;;;;;;;9.77;3.65;;;13.40;99.90;;;12.36;92.37;102880.53;4958572;28;20137;-84
2022/11/12 10:09:10;;;;;;;;;;;;;;;;;;;;;
2022/11/12 10:13:07;;;;;;;;;;;;;;;;;;;;;
2022/11/12 10:19:37;;;;;;;;;;;;;;;;;;;;;
2022/11/12 10:23:04;;;;;;;;;;;;;;;;;;;;;
2022/11/12 10:25:45;;;;;;;;;;;;;;;;;;;;;
2022/11/12 10:31:56;;;;;;;19.50;6.70;;;;;;;12.44;92.25;102890.94;4950247;29;20050;-83
2022/11/12 10:34:39;;;;;;;20.08;7.10;;;;;;;12.47;92.55;102891.75;4948258;29;20063;-83
2022/11/12 10:37:40;;;;;;;;;;;;;;;;;;;;;
2022/11/12 10:41:13;;;;;;;;;;;;;;;;;;;;;
2022/11/12 10:44:26;;;;;;;;;;;;;;;;;;;;;
2022/11/12 10:47:40;;;;;;;;;;;;;;;;;;;;;
2022/11/12 10:51:10;;;;;;;37.83;8.93;;;13.70;99.90;;;12.76;91.48;102890.28;5008246;28;20116;-83
2022/11/12 10:53:47;;;;;;;22.10;8.13;;;13.80;99.90;;;12.79;91.44;102884.94;4915450;29;20036;-84
2022/11/12 10:56:52;;;;;;;;;;;;;;;;;;;;;
2022/11/12 10:59:47;;;;;;;;;;;;;;;;;;;;;
2022/11/12 11:02:52;;;;;;;;;;;;;;;;;;;;;
2022/11/12 11:09:29;;;;;;;;;;;;;;;;;;;;;
2022/11/12 11:11:58;;;;;;;16.92;7.60;;;;;;;12.85;90.30;102887.44;5007967;28;20089;-85
2022/11/12 11:14:39;;;;;;;21.25;7.50;;;13.90;99.90;;;12.89;90.49;102889.13;4987006;28;20042;-83
2022/11/12 11:17:20;;;;;;;26.17;9.23;;;13.90;99.90;;;12.89;90.26;102881.19;4978722;28;20034;-83
2022/11/12 11:19:46;;;;;;;15.88;8.35;;;13.90;99.90;;;12.93;89.97;102885.47;4972381;28;20103;-85
2022/11/12 11:22:52;;;;;;;21.17;7.55;;;14.00;99.90;;;12.97;90.13;102891.59;4991786;28;21408;-85
2022/11/12 11:25:32;;;;;;;20.40;8.27;;;14.00;99.90;;;13.00;90.01;102893.28;5000295;28;20106;-83
2022/11/12 11:29:13;;;;;;;;;;;;;;;;;;;;;
2022/11/12 11:32:09;;;;;;;25.50;7.38;;;14.00;99.90;;;12.92;89.87;102893.47;5006651;28;20033;-84
2022/11/12 11:34:50;;;;;;;21.98;7.78;;;13.90;99.90;;;12.86;90.42;102897.13;4993699;28;20491;-84
2022/11/12 11:37:46;;;;;;;18.27;8.05;;;13.90;99.90;;;12.84;90.30;102898.06;5005620;28;20023;-85
2022/11/12 11:40:46;;;;;;;15.60;8.10;;;13.90;99.90;;;12.85;90.54;102891.84;4983303;28;20037;-85
2022/11/12 11:44:28;;;;;;;15.77;7.57;;;13.90;99.90;;;12.90;90.49;102897.94;4987175;28;20026;-85
2022/11/12 11:47:06;;;;;;;22.10;7.90;;;14.00;99.90;;;12.96;90.32;102889.88;4938130;29;20034;-84
2022/11/12 11:53:13;;;;;;;19.70;7.22;;;;;;;13.07;89.84;102879.03;4978387;28;20038;-85
2022/11/12 11:56:40;;;;;;;;;;;;;;;;;;;;;
2022/11/12 11:59:44;;;;;;;13.98;6.93;;;14.10;99.90;;;13.16;89.42;102877.97;4996936;28;20117;-83